Time;durP1;ratioP1;P1;durP2;ratioP2;P2;SDS_P1;SDS_P2;PMS_P1;PMS_P2;Temp;Humidity;BMP_temperature;BMP_pressure;BME280_temperature;BME280_humidity;BME280_pressure;Samples;Min_cycle;Max_cycle;Signal;HPM_P1;HPM_P2
2022/08/06 00:00:10;;;;;;;;;;;31.20;38.80;;;;;;860928;23;766;-84
2022/08/06 00:00:30;;;;;;;;;;;31.20;38.60;;;;;;861074;23;817;-83
2022/08/06 00:00:51;;;;;;;;;;;31.20;38.70;;;;;;861115;23;825;-85
2022/08/06 00:01:11;;;;;;;;;;;31.20;38.80;;;;;;861055;23;829;-86
2022/08/06 00:01:32;;;;;;;;;;;31.20;37.70;;;;;;861166;23;846;-84
2022/08/06 00:01:53;;;;;;;;;;;31.20;38.80;;;;;;861003;23;798;-84
2022/08/06 00:02:14;;;;;;;;;;;31.20;38.70;;;;;;861071;23;789;-83
2022/08/06 00:02:34;;;;;;;;;;;31.20;38.70;;;;;;861140;23;814;-85
2022/08/06 00:02:55;;;;;;;;;;;31.20;38.80;;;;;;861263;23;935;-87
2022/08/06 00:03:15;;;;;;;;;;;31.20;38.70;;;;;;860968;23;882;-83
2022/08/06 00:03:36;;;;;;;;;;;31.20;38.80;;;;;;861178;23;896;-86
2022/08/06 00:03:56;;;;;;;;;;;31.20;38.70;;;;;;860971;23;877;-85
2022/08/06 00:04:17;;;;;;;;;;;31.20;38.70;;;;;;861132;23;782;-84
2022/08/06 00:04:38;;;;;;;;;;;31.20;38.60;;;;;;856576;23;1237;-83
2022/08/06 00:04:59;;;;;;;;;;;31.20;37.70;;;;;;856786;23;818;-87
2022/08/06 00:05:20;;;;;;;;;;;31.20;38.70;;;;;;856428;23;848;-85
2022/08/06 00:05:41;;;;;;;;;;;31.20;38.90;;;;;;856668;23;794;-85
2022/08/06 00:06:01;;;;;;;;;;;31.20;38.60;;;;;;856552;23;797;-84
2022/08/06 00:06:22;;;;;;;;;;;31.20;38.70;;;;;;853101;23;1211;-84
2022/08/06 00:06:42;;;;;;;;;;;31.20;38.80;;;;;;856968;23;762;-84
2022/08/06 00:07:03;;;;;;;;;;;31.10;37.60;;;;;;856818;23;884;-82
2022/08/06 00:07:24;;;;;;;;;;;31.20;38.80;;;;;;856388;23;801;-83
2022/08/06 00:07:45;;;;;;;;;;;31.20;38.70;;;;;;852635;23;1218;-84
2022/08/06 00:08:06;;;;;;;;;;;31.20;38.80;;;;;;853069;23;889;-85
2022/08/06 00:08:26;;;;;;;;;;;31.20;37.70;;;;;;857039;23;793;-84
2022/08/06 00:08:47;;;;;;;;;;;31.20;38.80;;;;;;856826;23;948;-83
2022/08/06 00:09:07;;;;;;;;;;;31.20;38.60;;;;;;856859;23;754;-85
2022/08/06 00:09:30;;;;;;;;;;;31.20;38.80;;;;;;857112;23;1375;-85
2022/08/06 00:09:50;;;;;;;;;;;31.20;38.60;;;;;;861171;23;929;-84
2022/08/06 00:10:11;;;;;;;;;;;31.20;38.60;;;;;;861000;23;820;-84
2022/08/06 00:10:32;;;;;;;;;;;31.20;37.70;;;;;;856856;23;1465;-84
2022/08/06 00:10:53;;;;;;;;;;;31.20;38.60;;;;;;856905;23;762;-85
2022/08/06 00:11:13;;;;;;;;;;;31.20;38.60;;;;;;856870;23;770;-85
2022/08/06 00:11:34;;;;;;;;;;;31.20;38.90;;;;;;856771;23;790;-82
2022/08/06 00:11:54;;;;;;;;;;;31.20;38.90;;;;;;856875;23;790;-83
2022/08/06 00:12:15;;;;;;;;;;;31.20;38.70;;;;;;857132;23;782;-81
2022/08/06 00:12:36;;;;;;;;;;;31.20;38.90;;;;;;861144;23;916;-82
2022/08/06 00:12:58;;;;;;;;;;;31.20;38.80;;;;;;861248;23;916;-85
2022/08/06 00:13:18;;;;;;;;;;;31.20;38.70;;;;;;861270;23;778;-83
2022/08/06 00:13:39;;;;;;;;;;;31.20;38.70;;;;;;861092;23;810;-84
2022/08/06 00:13:59;;;;;;;;;;;31.20;38.70;;;;;;860895;23;892;-83
2022/08/06 00:14:20;;;;;;;;;;;31.20;37.60;;;;;;856669;23;1302;-83
2022/08/06 00:14:41;;;;;;;;;;;31.20;38.80;;;;;;856826;23;829;-83
2022/08/06 00:15:04;;;;;;;;;;;31.20;37.70;;;;;;856745;23;1179;-83
2022/08/06 00:15:24;;;;;;;;;;;31.20;37.70;;;;;;856739;23;1928;-83
2022/08/06 00:15:45;;;;;;;;;;;31.20;37.70;;;;;;856838;23;893;-83
2022/08/06 00:16:06;;;;;;;;;;;31.20;38.80;;;;;;856512;23;790;-84
2022/08/06 00:16:26;;;;;;;;;;;31.20;38.90;;;;;;856608;23;900;-84
2022/08/06 00:16:47;;;;;;;;;;;31.20;37.60;;;;;;857638;23;786;-84
2022/08/06 00:17:07;;;;;;;;;;;31.20;37.60;;;;;;861144;23;842;-83
2022/08/06 00:17:28;;;;;;;;;;;31.20;37.60;;;;;;856203;23;1375;-83
2022/08/06 00:17:48;;;;;;;;;;;31.20;38.80;;;;;;856790;23;849;-83
2022/08/06 00:18:09;;;;;;;;;;;31.20;38.60;;;;;;856645;23;877;-86
2022/08/06 00:18:29;;;;;;;;;;;31.20;38.70;;;;;;856909;23;766;-84
2022/08/06 00:18:50;;;;;;;;;;;31.20;38.80;;;;;;856743;23;944;-84
2022/08/06 00:19:11;;;;;;;;;;;31.20;38.60;;;;;;857402;23;786;-84
2022/08/06 00:19:31;;;;;;;;;;;31.20;38.50;;;;;;861291;23;751;-85
2022/08/06 00:19:52;;;;;;;;;;;31.20;38.50;;;;;;861238;23;916;-84
2022/08/06 00:20:13;;;;;;;;;;;31.20;38.60;;;;;;861229;23;829;-83
2022/08/06 00:20:34;;;;;;;;;;;31.20;38.50;;;;;;861160;23;782;-85
2022/08/06 00:20:54;;;;;;;;;;;31.20;38.60;;;;;;861186;23;762;-85
2022/08/06 00:21:15;;;;;;;;;;;31.20;38.50;;;;;;861141;23;885;-83
2022/08/06 00:21:35;;;;;;;;;;;31.20;38.50;;;;;;861021;23;522;-84
2022/08/06 00:21:56;;;;;;;;;;;31.20;38.40;;;;;;861154;23;848;-85
2022/08/06 00:22:17;;;;;;;;;;;31.20;38.40;;;;;;861222;23;834;-85
2022/08/06 00:22:37;;;;;;;;;;;31.20;38.50;;;;;;861393;23;805;-84
2022/08/06 00:22:59;;;;;;;;;;;31.20;38.50;;;;;;861214;23;789;-85
2022/08/06 00:23:19;;;;;;;;;;;31.20;38.30;;;;;;861230;23;813;-85
2022/08/06 00:23:40;;;;;;;;;;;31.20;38.40;;;;;;861227;23;758;-84
2022/08/06 00:24:00;;;;;;;;;;;31.20;38.40;;;;;;861254;23;881;-86
2022/08/06 00:24:21;;;;;;;;;;;31.20;38.40;;;;;;861358;23;754;-85
2022/08/06 00:24:42;;;;;;;;;;;31.20;38.40;;;;;;861032;23;814;-84
2022/08/06 00:25:03;;;;;;;;;;;31.20;37.30;;;;;;861156;23;836;-82
2022/08/06 00:25:23;;;;;;;;;;;31.20;38.20;;;;;;860914;23;1090;-83
2022/08/06 00:25:45;;;;;;;;;;;31.20;38.20;;;;;;861073;23;797;-83
2022/08/06 00:26:05;;;;;;;;;;;31.20;38.20;;;;;;860982;23;837;-85
2022/08/06 00:26:26;;;;;;;;;;;31.20;38.30;;;;;;861150;23;939;-85
2022/08/06 00:26:46;;;;;;;;;;;31.20;38.20;;;;;;861063;23;833;-84
2022/08/06 00:27:07;;;;;;;;;;;31.20;38.30;;;;;;861042;23;881;-83
2022/08/06 00:27:28;;;;;;;;;;;31.20;38.20;;;;;;861649;23;814;-83
2022/08/06 00:27:48;;;;;;;;;;;31.20;38.30;;;;;;861908;23;543;-83
2022/08/06 00:28:09;;;;;;;;;;;31.20;38.10;;;;;;862314;23;833;-84
2022/08/06 00:28:29;;;;;;;;;;;31.20;38.10;;;;;;857552;23;962;-85
2022/08/06 00:28:51;;;;;;;;;;;31.20;38.10;;;;;;857540;23;1007;-85
2022/08/06 00:29:11;;;;;;;;;;;31.20;38.00;;;;;;857183;23;770;-85
2022/08/06 00:29:32;;;;;;;;;;;31.20;38.00;;;;;;857124;23;921;-85
2022/08/06 00:29:52;;;;;;;;;;;31.20;38.00;;;;;;856841;23;869;-84
2022/08/06 00:30:13;;;;;;;;;;;31.20;38.00;;;;;;857270;23;766;-83
2022/08/06 00:30:33;;;;;;;;;;;31.20;37.90;;;;;;861283;23;896;-84
2022/08/06 00:30:54;;;;;;;;;;;31.20;37.90;;;;;;861216;23;743;-83
2022/08/06 00:31:15;;;;;;;;;;;31.20;38.00;;;;;;861210;23;801;-85
2022/08/06 00:31:35;;;;;;;;;;;31.20;37.90;;;;;;861346;23;447;-85
2022/08/06 00:31:56;;;;;;;;;;;31.20;37.80;;;;;;861267;23;908;-85
2022/08/06 00:32:16;;;;;;;;;;;31.20;37.80;;;;;;856631;23;861;-83
2022/08/06 00:32:37;;;;;;;;;;;31.20;37.80;;;;;;856708;23;975;-87
2022/08/06 00:32:58;;;;;;;;;;;31.20;37.80;;;;;;856739;23;778;-84
2022/08/06 00:33:18;;;;;;;;;;;31.20;37.70;;;;;;856737;23;762;-84
2022/08/06 00:33:41;;;;;;;;;;;31.20;37.80;;;;;;856730;23;1015;-85
2022/08/06 00:34:03;;;;;;;;;;;31.20;37.70;;;;;;856484;23;828;-84
2022/08/06 00:34:24;;;;;;;;;;;31.20;37.90;;;;;;858234;23;794;-84
2022/08/06 00:34:44;;;;;;;;;;;31.20;37.80;;;;;;861247;23;821;-84
2022/08/06 00:35:05;;;;;;;;;;;31.20;37.80;;;;;;861149;23;750;-84
2022/08/06 00:35:26;;;;;;;;;;;31.20;37.80;;;;;;860769;23;1930;-85
2022/08/06 00:35:46;;;;;;;;;;;31.20;37.80;;;;;;861320;23;781;-83
2022/08/06 00:36:07;;;;;;;;;;;31.20;37.90;;;;;;861042;23;778;-84
2022/08/06 00:36:28;;;;;;;;;;;31.20;37.60;;;;;;856803;23;845;-84
2022/08/06 00:36:49;;;;;;;;;;;31.20;37.70;;;;;;856736;23;798;-83
2022/08/06 00:37:09;;;;;;;;;;;31.20;37.80;;;;;;856874;23;774;-84
2022/08/06 00:37:32;;;;;;;;;;;31.20;37.80;;;;;;856842;23;770;-85
2022/08/06 00:37:52;;;;;;;;;;;31.20;37.80;;;;;;856688;23;829;-87
2022/08/06 00:38:13;;;;;;;;;;;31.20;37.80;;;;;;857638;23;885;-84
2022/08/06 00:38:33;;;;;;;;;;;31.20;37.70;;;;;;861253;23;905;-85
2022/08/06 00:38:54;;;;;;;;;;;31.20;37.80;;;;;;861227;23;817;-85
2022/08/06 00:39:15;;;;;;;;;;;31.20;37.60;;;;;;861033;23;954;-84
2022/08/06 00:39:35;;;;;;;;;;;31.20;37.70;;;;;;861085;23;785;-86
2022/08/06 00:39:56;;;;;;;;;;;31.10;36.50;;;;;;860808;23;861;-82
2022/08/06 00:40:18;;;;;;;;;;;31.20;37.70;;;;;;861093;23;832;-82
2022/08/06 00:40:39;;;;;;;;;;;31.20;37.60;;;;;;861096;23;872;-82
2022/08/06 00:40:59;;;;;;;;;;;31.20;37.60;;;;;;860896;23;1317;-86
2022/08/06 00:41:21;;;;;;;;;;;31.20;37.60;;;;;;861015;23;877;-83
2022/08/06 00:41:42;;;;;;;;;;;31.20;37.40;;;;;;861024;23;865;-83
2022/08/06 00:42:03;;;;;;;;;;;31.20;37.50;;;;;;860849;23;860;-84
2022/08/06 00:42:23;;;;;;;;;;;31.20;37.50;;;;;;861132;23;782;-84
2022/08/06 00:42:44;;;;;;;;;;;31.20;37.50;;;;;;861142;23;829;-85
2022/08/06 00:43:05;;;;;;;;;;;31.20;37.40;;;;;;861125;23;837;-86
2022/08/06 00:43:26;;;;;;;;;;;31.20;37.50;;;;;;861070;23;809;-85
2022/08/06 00:43:47;;;;;;;;;;;31.20;37.60;;;;;;861032;23;841;-82
2022/08/06 00:44:07;;;;;;;;;;;31.20;37.50;;;;;;860889;23;857;-81
2022/08/06 00:44:28;;;;;;;;;;;31.20;37.60;;;;;;861245;23;849;-83
2022/08/06 00:44:48;;;;;;;;;;;31.20;37.50;;;;;;861256;23;912;-82
2022/08/06 00:45:09;;;;;;;;;;;31.20;37.50;;;;;;861207;23;841;-82
2022/08/06 00:45:30;;;;;;;;;;;31.20;37.50;;;;;;861176;23;858;-84
2022/08/06 00:45:51;;;;;;;;;;;31.20;37.50;;;;;;860988;23;822;-84
2022/08/06 00:46:11;;;;;;;;;;;31.20;37.50;;;;;;860844;23;912;-84
2022/08/06 00:46:32;;;;;;;;;;;31.20;37.40;;;;;;861362;23;797;-85
2022/08/06 00:46:53;;;;;;;;;;;31.20;37.40;;;;;;861284;23;830;-83
2022/08/06 00:47:14;;;;;;;;;;;31.20;37.50;;;;;;861098;23;948;-85
2022/08/06 00:47:34;;;;;;;;;;;31.20;37.40;;;;;;861288;23;821;-83
2022/08/06 00:47:55;;;;;;;;;;;31.20;37.50;;;;;;861228;23;853;-84
2022/08/06 00:48:15;;;;;;;;;;;31.20;36.40;;;;;;861082;23;884;-83
2022/08/06 00:48:36;;;;;;;;;;;31.20;37.40;;;;;;856208;23;901;-83
2022/08/06 00:48:57;;;;;;;;;;;31.20;37.50;;;;;;856786;23;892;-82
2022/08/06 00:49:17;;;;;;;;;;;31.20;37.50;;;;;;856789;23;813;-82
2022/08/06 00:49:38;;;;;;;;;;;31.20;37.30;;;;;;856814;23;564;-81
2022/08/06 00:49:59;;;;;;;;;;;31.20;37.40;;;;;;856614;23;849;-83
2022/08/06 00:50:20;;;;;;;;;;;31.20;37.30;;;;;;857134;23;953;-81
2022/08/06 00:50:40;;;;;;;;;;;31.20;37.40;;;;;;861199;23;782;-82
2022/08/06 00:51:01;;;;;;;;;;;31.20;37.20;;;;;;861164;23;943;-83
2022/08/06 00:51:23;;;;;;;;;;;31.20;37.30;;;;;;861101;23;838;-84
2022/08/06 00:51:44;;;;;;;;;;;31.20;37.30;;;;;;861271;23;839;-83
2022/08/06 00:52:04;;;;;;;;;;;31.20;37.50;;;;;;860725;23;1302;-84
2022/08/06 00:52:25;;;;;;;;;;;31.20;37.30;;;;;;861132;23;884;-84
2022/08/06 00:52:46;;;;;;;;;;;31.10;36.10;;;;;;861201;23;881;-82
2022/08/06 00:53:06;;;;;;;;;;;31.20;37.30;;;;;;861175;23;761;-85
2022/08/06 00:53:27;;;;;;;;;;;31.20;37.30;;;;;;861080;23;868;-85
2022/08/06 00:53:48;;;;;;;;;;;31.10;36.10;;;;;;861224;23;833;-85
2022/08/06 00:54:08;;;;;;;;;;;31.10;36.10;;;;;;861054;23;749;-83
2022/08/06 00:54:29;;;;;;;;;;;31.20;37.40;;;;;;861245;23;912;-82
2022/08/06 00:54:50;;;;;;;;;;;31.20;37.20;;;;;;861047;23;789;-83
2022/08/06 00:55:10;;;;;;;;;;;31.20;37.10;;;;;;861008;23;1904;-82
2022/08/06 00:55:31;;;;;;;;;;;31.20;37.00;;;;;;860983;23;777;-83
2022/08/06 00:55:51;;;;;;;;;;;31.10;36.00;;;;;;861298;23;785;-82
2022/08/06 00:56:12;;;;;;;;;;;31.20;37.30;;;;;;860996;23;797;-83
2022/08/06 00:56:32;;;;;;;;;;;31.20;37.20;;;;;;861037;23;924;-84
2022/08/06 00:56:53;;;;;;;;;;;31.20;37.10;;;;;;861305;23;829;-84
2022/08/06 00:57:14;;;;;;;;;;;31.20;37.20;;;;;;861149;23;809;-82
2022/08/06 00:57:35;;;;;;;;;;;31.20;37.10;;;;;;861320;23;813;-85
2022/08/06 00:57:56;;;;;;;;;;;31.20;37.00;;;;;;861298;23;849;-83
2022/08/06 00:58:16;;;;;;;;;;;31.20;37.10;;;;;;861127;23;868;-85
2022/08/06 00:58:37;;;;;;;;;;;31.20;37.30;;;;;;861233;23;805;-84
2022/08/06 00:58:58;;;;;;;;;;;31.20;37.20;;;;;;861210;23;793;-84
2022/08/06 00:59:38;;;;;;;;;;;31.50;38.30;;;;;;665429;27;1391317;-85
2022/08/06 00:59:59;;;;;;;;;;;31.20;36.30;;;;;;713504;27;920;-81
2022/08/06 01:00:20;;;;;;;;;;;31.20;36.50;;;;;;713562;27;879;-82
2022/08/06 01:00:40;;;;;;;;;;;31.20;36.30;;;;;;711549;27;1838;-83
2022/08/06 01:01:01;;;;;;;;;;;31.20;36.20;;;;;;713545;27;959;-84
2022/08/06 01:01:21;;;;;;;;;;;31.20;36.20;;;;;;711027;27;1857;-84
2022/08/06 01:01:42;;;;;;;;;;;31.20;36.20;;;;;;710668;27;789;-84
2022/08/06 01:02:02;;;;;;;;;;;31.20;36.20;;;;;;710701;27;904;-84
2022/08/06 01:02:23;;;;;;;;;;;31.20;36.10;;;;;;710857;27;932;-83
2022/08/06 01:02:44;;;;;;;;;;;31.20;36.10;;;;;;710782;27;785;-84
2022/08/06 01:03:05;;;;;;;;;;;;;;;;;;710546;27;1505;-83
2022/08/06 01:03:25;;;;;;;;;;;31.20;36.10;;;;;;709059;27;1024;-86
2022/08/06 01:03:46;;;;;;;;;;;31.20;36.10;;;;;;709241;27;900;-84
2022/08/06 01:04:07;;;;;;;;;;;31.20;36.10;;;;;;707746;28;790;-85
2022/08/06 01:04:27;;;;;;;;;;;31.20;36.10;;;;;;710822;27;829;-85
2022/08/06 01:04:48;;;;;;;;;;;31.20;36.00;;;;;;710818;27;849;-84
2022/08/06 01:05:08;;;;;;;;;;;31.20;35.90;;;;;;710680;27;948;-84
2022/08/06 01:05:29;;;;;;;;;;;31.20;36.00;;;;;;711340;27;809;-82
2022/08/06 01:05:49;;;;;;;;;;;31.10;35.90;;;;;;712186;27;960;-85
2022/08/06 01:06:10;;;;;;;;;;;31.20;35.90;;;;;;712233;27;793;-85
2022/08/06 01:06:30;;;;;;;;;;;31.20;35.90;;;;;;712180;27;897;-84
2022/08/06 01:06:51;;;;;;;;;;;31.20;35.90;;;;;;712215;27;833;-85
2022/08/06 01:07:12;;;;;;;;;;;31.20;35.90;;;;;;712345;27;885;-83
2022/08/06 01:07:32;;;;;;;;;;;31.20;35.90;;;;;;708148;28;1381;-82
2022/08/06 01:07:54;;;;;;;;;;;;;;;;;;708753;28;750;-83
2022/08/06 01:08:15;;;;;;;;;;;31.20;35.80;;;;;;708289;28;857;-83
2022/08/06 01:08:35;;;;;;;;;;;;;;;;;;708586;28;991;-84
2022/08/06 01:08:56;;;;;;;;;;;31.20;35.80;;;;;;708841;28;797;-84
2022/08/06 01:09:17;;;;;;;;;;;31.20;35.80;;;;;;706306;28;1187;-83
2022/08/06 01:09:37;;;;;;;;;;;31.20;35.70;;;;;;708769;28;1003;-83
2022/08/06 01:09:58;;;;;;;;;;;31.20;35.70;;;;;;708694;28;789;-82
2022/08/06 01:10:19;;;;;;;;;;;31.20;35.80;;;;;;709005;28;1022;-82
2022/08/06 01:10:39;;;;;;;;;;;31.20;35.70;;;;;;708858;28;830;-82
2022/08/06 01:11:00;;;;;;;;;;;31.20;35.70;;;;;;709133;27;1106;-82
2022/08/06 01:11:20;;;;;;;;;;;31.20;35.70;;;;;;711758;27;885;-83
2022/08/06 01:11:42;;;;;;;;;;;31.20;35.70;;;;;;708238;28;892;-81
2022/08/06 01:12:03;;;;;;;;;;;31.10;35.50;;;;;;708275;28;888;-82
2022/08/06 01:12:24;;;;;;;;;;;31.10;35.60;;;;;;708203;28;1012;-82
2022/08/06 01:12:45;;;;;;;;;;;31.10;35.50;;;;;;708381;28;864;-82
2022/08/06 01:13:06;;;;;;;;;;;31.10;35.50;;;;;;706262;28;1197;-86
2022/08/06 01:13:26;;;;;;;;;;;31.10;35.40;;;;;;706365;28;762;-84
2022/08/06 01:13:47;;;;;;;;;;;31.20;35.60;;;;;;706637;28;1103;-83
2022/08/06 01:14:07;;;;;;;;;;;31.10;35.60;;;;;;703531;28;893;-83
2022/08/06 01:14:28;;;;;;;;;;;31.10;35.50;;;;;;702846;28;1164;-81
2022/08/06 01:14:48;;;;;;;;;;;31.10;36.00;;;;;;702931;28;980;-80
2022/08/06 01:15:09;;;;;;;;;;;31.10;35.90;;;;;;705724;28;1169;-82
2022/08/06 01:15:32;;;;;;;;;;;31.10;35.90;;;;;;704910;28;810;-82
2022/08/06 01:16:12;;;;;;;;;;;31.10;35.90;;;;;;705037;28;770;-82
2022/08/06 01:16:45;;;;;;;;;;;31.20;35.60;;;;;;702262;28;1142;-82
2022/08/06 01:17:32;;;;;;;;;;;31.10;35.50;;;;;;704902;28;912;-83
2022/08/06 01:17:53;;;;;;;;;;;31.10;35.50;;;;;;700846;28;1963;-84
2022/08/06 01:18:17;;;;;;;;;;;31.10;35.40;;;;;;702617;28;857;-84
2022/08/06 01:18:43;;;;;;;;;;;31.10;35.40;;;;;;702374;28;952;-85
2022/08/06 01:19:04;;;;;;;;;;;;;;;;;;699776;28;1051;-84
2022/08/06 01:19:24;;;;;;;;;;;31.10;35.50;;;;;;699744;28;1913;-82
2022/08/06 01:19:48;;;;;;;;;;;31.10;35.30;;;;;;701285;28;901;-83
2022/08/06 01:20:11;;;;;;;;;;;31.10;35.40;;;;;;699795;28;1612;-82
2022/08/06 01:20:50;;;;;;;;;;;31.10;35.40;;;;;;699665;28;1000;-81
2022/08/06 01:21:18;;;;;;;;;;;31.10;35.40;;;;;;702579;28;869;-81
2022/08/06 01:21:39;;;;;;;;;;;31.10;36.40;;;;;;702412;28;1151;-82
2022/08/06 01:22:12;;;;;;;;;;;31.10;35.40;;;;;;702358;28;826;-82
2022/08/06 01:22:39;;;;;;;;;;;31.10;35.40;;;;;;699004;28;1093;-81
2022/08/06 01:23:02;;;;;;;;;;;31.10;35.40;;;;;;699225;28;929;-81
2022/08/06 01:23:48;;;;;;;;;;;31.10;35.30;;;;;;699474;28;798;-81
2022/08/06 01:24:14;;;;;;;;;;;31.10;35.20;;;;;;700803;28;2129;-81
2022/08/06 01:25:01;;;;;;;;;;;31.00;35.40;;;;;;704818;28;882;-82
2022/08/06 01:25:43;;;;;;;;;;;31.00;35.10;;;;;;703377;28;1927;-83
2022/08/06 01:26:16;;;;;;;;;;;31.10;35.40;;;;;;704503;28;833;-84
2022/08/06 01:26:40;;;;;;;;;;;31.10;36.10;;;;;;704843;28;853;-85
2022/08/06 01:27:00;;;;;;;;;;;31.10;35.30;;;;;;704786;28;956;-84
2022/08/06 01:27:38;;;;;;;;;;;31.00;35.00;;;;;;704796;28;953;-83
2022/08/06 01:28:01;;;;;;;;;;;31.00;35.10;;;;;;704156;28;827;-83
2022/08/06 01:28:28;;;;;;;;;;;31.00;35.10;;;;;;704543;28;827;-83
2022/08/06 01:29:27;;;;;;;;;;;31.00;35.00;;;;;;704529;28;940;-84
2022/08/06 01:29:48;;;;;;;;;;;;;;;;;;698880;28;937;-82
2022/08/06 01:30:11;;;;;;;;;;;31.00;34.90;;;;;;701032;28;1824;-82
2022/08/06 01:30:35;;;;;;;;;;;31.00;36.00;;;;;;701715;28;866;-83
2022/08/06 01:31:04;;;;;;;;;;;31.00;35.10;;;;;;701700;28;837;-83
2022/08/06 01:31:48;;;;;;;;;;;32.00;36.00;;;;;;701523;28;1579;-82
2022/08/06 01:32:11;;;;;;;;;;;31.00;35.00;;;;;;693041;28;1040;-83
2022/08/06 01:32:35;;;;;;;;;;;31.00;34.90;;;;;;693410;28;858;-83
2022/08/06 01:33:02;;;;;;;;;;;31.00;34.90;;;;;;693391;28;890;-85
2022/08/06 01:33:51;;;;;;;;;;;31.00;35.80;;;;;;693422;28;940;-84
2022/08/06 01:34:34;;;;;;;;;;;31.00;34.80;;;;;;690401;28;1321;-85
2022/08/06 01:34:57;;;;;;;;;;;31.00;34.80;;;;;;685315;28;1329;-83
2022/08/06 01:35:21;;;;;;;;;;;31.00;34.90;;;;;;689969;28;1734;-84
2022/08/06 01:35:44;;;;;;;;;;;31.00;34.90;;;;;;687812;28;1104;-82
2022/08/06 01:36:07;;;;;;;;;;;31.00;34.90;;;;;;687658;28;1177;-84
2022/08/06 01:36:32;;;;;;;;;;;31.00;36.20;;;;;;687752;28;1095;-83
2022/08/06 01:37:01;;;;;;;;;;;31.00;34.80;;;;;;687938;28;914;-83
2022/08/06 01:37:31;;;;;;;;;;;31.00;35.80;;;;;;687899;28;863;-82
2022/08/06 01:37:54;;;;;;;;;;;31.00;34.90;;;;;;687796;28;1120;-82
2022/08/06 01:38:22;;;;;;;;;;;31.00;35.80;;;;;;687779;28;862;-85
2022/08/06 01:38:45;;;;;;;;;;;31.00;34.90;;;;;;687926;28;835;-84
2022/08/06 01:39:05;;;;;;;;;;;30.90;34.80;;;;;;687903;28;878;-82
2022/08/06 01:39:26;;;;;;;;;;;30.90;34.80;;;;;;687742;28;1907;-84
2022/08/06 01:39:50;;;;;;;;;;;31.00;34.80;;;;;;688022;28;882;-84
2022/08/06 01:40:13;;;;;;;;;;;30.90;35.80;;;;;;687702;28;1289;-83
2022/08/06 01:40:34;;;;;;;;;;;30.90;34.80;;;;;;687832;28;744;-83
2022/08/06 01:40:57;;;;;;;;;;;30.90;34.90;;;;;;688004;28;862;-83
2022/08/06 01:41:38;;;;;;;;;;;30.90;35.00;;;;;;687933;28;909;-84
2022/08/06 01:42:00;;;;;;;;;;;30.90;34.80;;;;;;687553;28;1203;-85
2022/08/06 01:42:21;;;;;;;;;;;30.90;34.90;;;;;;687891;28;972;-84
2022/08/06 01:42:43;;;;;;;;;;;30.90;34.90;;;;;;687760;28;1960;-83
2022/08/06 01:43:06;;;;;;;;;;;30.90;35.30;;;;;;687899;28;898;-83
2022/08/06 01:43:27;;;;;;;;;;;30.90;35.10;;;;;;687816;28;1010;-83
2022/08/06 01:43:47;;;;;;;;;;;30.90;34.80;;;;;;687930;28;882;-83
2022/08/06 01:44:16;;;;;;;;;;;30.90;34.90;;;;;;687308;28;1765;-83
2022/08/06 01:44:38;;;;;;;;;;;30.90;34.90;;;;;;687894;28;902;-83
2022/08/06 01:45:03;;;;;;;;;;;30.90;34.90;;;;;;687765;28;910;-82
2022/08/06 01:45:26;;;;;;;;;;;30.90;34.80;;;;;;687911;28;882;-84
2022/08/06 01:45:48;;;;;;;;;;;30.90;34.90;;;;;;687856;28;980;-82
2022/08/06 01:46:10;;;;;;;;;;;30.90;34.80;;;;;;687436;28;1034;-82
2022/08/06 01:46:31;;;;;;;;;;;30.90;34.80;;;;;;687926;28;898;-82
2022/08/06 01:46:54;;;;;;;;;;;30.90;35.10;;;;;;687767;28;783;-81
2022/08/06 01:47:16;;;;;;;;;;;30.90;35.20;;;;;;687856;28;882;-82
2022/08/06 01:47:38;;;;;;;;;;;30.90;35.00;;;;;;687839;28;1570;-82
2022/08/06 01:48:01;;;;;;;;;;;30.90;35.10;;;;;;684634;28;1049;-82
2022/08/06 01:48:24;;;;;;;;;;;30.90;35.00;;;;;;685069;28;1009;-82
2022/08/06 01:48:45;;;;;;;;;;;;;;;;;;685180;28;1181;-86
2022/08/06 01:49:07;;;;;;;;;;;30.90;34.90;;;;;;685154;28;978;-84
2022/08/06 01:49:29;;;;;;;;;;;30.90;35.00;;;;;;685015;28;1720;-84
2022/08/06 01:49:52;;;;;;;;;;;30.90;35.00;;;;;;686480;28;783;-81
2022/08/06 01:50:16;;;;;;;;;;;30.90;34.90;;;;;;688645;28;1788;-83
2022/08/06 01:50:38;;;;;;;;;;;30.90;35.40;;;;;;690544;28;1018;-84
2022/08/06 01:51:01;;;;;;;;;;;30.90;35.10;;;;;;690004;28;1638;-81
2022/08/06 01:51:23;;;;;;;;;;;30.90;36.20;;;;;;687624;28;950;-82
2022/08/06 01:51:44;;;;;;;;;;;30.90;35.00;;;;;;689807;28;1792;-82
2022/08/06 01:52:07;;;;;;;;;;;30.90;35.50;;;;;;688958;28;877;-81
2022/08/06 01:52:28;;;;;;;;;;;30.90;35.60;;;;;;687578;28;1809;-81
2022/08/06 01:52:50;;;;;;;;;;;30.90;35.60;;;;;;687942;28;894;-81
2022/08/06 01:53:12;;;;;;;;;;;30.90;35.90;;;;;;687809;28;855;-81
2022/08/06 01:53:36;;;;;;;;;;;30.90;36.50;;;;;;687607;28;1340;-81
2022/08/06 01:53:58;;;;;;;;;;;30.90;35.20;;;;;;687658;28;898;-83
2022/08/06 01:54:19;;;;;;;;;;;30.90;35.10;;;;;;687828;28;969;-82
2022/08/06 01:54:42;;;;;;;;;;;30.90;35.00;;;;;;687251;28;965;-82
2022/08/06 01:55:05;;;;;;;;;;;30.90;34.90;;;;;;687768;28;1198;-83
2022/08/06 01:55:27;;;;;;;;;;;30.80;34.80;;;;;;687675;28;847;-85
2022/08/06 01:55:50;;;;;;;;;;;30.90;34.90;;;;;;687895;28;891;-82
2022/08/06 01:56:11;;;;;;;;;;;30.90;34.90;;;;;;687306;28;1728;-82
2022/08/06 01:56:33;;;;;;;;;;;30.90;34.90;;;;;;687720;28;1835;-82
2022/08/06 01:56:55;;;;;;;;;;;30.80;34.90;;;;;;686492;28;879;-81
2022/08/06 01:57:18;;;;;;;;;;;30.90;35.00;;;;;;685077;28;959;-82
2022/08/06 01:57:40;;;;;;;;;;;30.80;35.00;;;;;;682288;28;1477;-81
2022/08/06 01:58:03;;;;;;;;;;;30.90;35.10;;;;;;684991;28;1110;-81
2022/08/06 01:58:36;;;;;;;;;;;30.90;35.00;;;;;;685189;28;891;-82
2022/08/06 01:58:58;;;;;;;;;;;30.90;35.00;;;;;;685082;28;947;-82
2022/08/06 01:59:21;;;;;;;;;;;30.90;35.00;;;;;;684915;28;1906;-82
2022/08/06 01:59:43;;;;;;;;;;;30.80;35.00;;;;;;687413;28;1664;-81
2022/08/06 02:00:04;;;;;;;;;;;30.80;35.00;;;;;;684930;28;1768;-81
2022/08/06 02:00:25;;;;;;;;;;;30.80;35.60;;;;;;685009;28;1334;-81
2022/08/06 02:00:46;;;;;;;;;;;30.80;35.20;;;;;;685188;28;787;-82
2022/08/06 02:01:09;;;;;;;;;;;30.80;35.10;;;;;;685171;28;856;-82
2022/08/06 02:01:30;;;;;;;;;;;30.90;35.20;;;;;;686110;28;1521;-81
2022/08/06 02:01:54;;;;;;;;;;;30.80;35.10;;;;;;687583;28;1254;-82
2022/08/06 02:02:19;;;;;;;;;;;30.80;35.40;;;;;;687629;28;1265;-81
2022/08/06 02:02:40;;;;;;;;;;;30.80;35.10;;;;;;687852;28;930;-82
2022/08/06 02:03:05;;;;;;;;;;;30.80;35.10;;;;;;687828;28;903;-85
2022/08/06 02:03:29;;;;;;;;;;;30.80;35.10;;;;;;687743;28;891;-83
2022/08/06 02:03:51;;;;;;;;;;;30.80;35.60;;;;;;687358;28;1360;-83
2022/08/06 02:04:12;;;;;;;;;;;33.20;37.30;;;;;;687281;28;1549;-83
2022/08/06 02:04:36;;;;;;;;;;;30.80;35.20;;;;;;687761;28;784;-82
2022/08/06 02:04:59;;;;;;;;;;;30.80;35.10;;;;;;687790;28;860;-83
2022/08/06 02:05:21;;;;;;;;;;;30.90;35.30;;;;;;687773;28;950;-83
2022/08/06 02:05:42;;;;;;;;;;;30.90;35.50;;;;;;685151;28;1755;-84
2022/08/06 02:06:04;;;;;;;;;;;30.80;35.40;;;;;;684913;28;1247;-82
2022/08/06 02:06:28;;;;;;;;;;;30.80;35.60;;;;;;685124;28;945;-83
2022/08/06 02:06:50;;;;;;;;;;;30.80;35.60;;;;;;685083;28;912;-83
2022/08/06 02:07:13;;;;;;;;;;;30.80;35.50;;;;;;685104;28;840;-83
2022/08/06 02:07:35;;;;;;;;;;;30.80;35.40;;;;;;685056;28;895;-83
2022/08/06 02:07:56;;;;;;;;;;;30.80;35.10;;;;;;685054;28;874;-84
2022/08/06 02:08:17;;;;;;;;;;;34.10;37.50;;;;;;685126;28;791;-83
2022/08/06 02:08:38;;;;;;;;;;;30.80;35.30;;;;;;685110;28;1001;-84
2022/08/06 02:09:01;;;;;;;;;;;30.80;35.30;;;;;;685135;28;837;-83
2022/08/06 02:09:23;;;;;;;;;;;30.80;35.30;;;;;;685184;28;787;-83
2022/08/06 02:09:44;;;;;;;;;;;30.80;35.30;;;;;;685149;28;938;-84
2022/08/06 02:10:05;;;;;;;;;;;30.80;35.60;;;;;;685296;28;934;-83
2022/08/06 02:10:27;;;;;;;;;;;30.80;35.40;;;;;;690559;28;796;-83
2022/08/06 02:10:50;;;;;;;;;;;30.80;35.40;;;;;;690423;28;890;-84
2022/08/06 02:11:11;;;;;;;;;;;30.80;35.40;;;;;;688289;28;906;-84
2022/08/06 02:11:33;;;;;;;;;;;30.90;35.60;;;;;;690609;28;1033;-83
2022/08/06 02:12:03;;;;;;;;;;;30.90;35.60;;;;;;705566;28;948;-84
2022/08/06 02:12:28;;;;;;;;;;;30.90;35.70;;;;;;705605;28;832;-83
2022/08/06 02:12:48;;;;;;;;;;;30.90;35.60;;;;;;702427;28;1479;-84
2022/08/06 02:13:10;;;;;;;;;;;30.90;35.60;;;;;;702506;28;1116;-85
2022/08/06 02:13:32;;;;;;;;;;;30.90;35.60;;;;;;702516;28;900;-85
2022/08/06 02:13:53;;;;;;;;;;;30.90;35.60;;;;;;702390;28;925;-83
2022/08/06 02:14:14;;;;;;;;;;;30.90;35.60;;;;;;702402;28;810;-84
2022/08/06 02:14:39;;;;;;;;;;;30.90;35.60;;;;;;702574;28;814;-85
2022/08/06 02:15:05;;;;;;;;;;;30.80;35.50;;;;;;704015;28;798;-84
2022/08/06 02:15:26;;;;;;;;;;;30.90;35.60;;;;;;705433;28;1307;-85
2022/08/06 02:15:48;;;;;;;;;;;30.80;35.50;;;;;;705581;28;798;-83
2022/08/06 02:16:09;;;;;;;;;;;30.90;35.60;;;;;;705747;27;822;-85
2022/08/06 02:16:37;;;;;;;;;;;30.90;35.40;;;;;;708364;27;905;-83